Inverness Airport

METAR EGPE TAF EGPE
8 °C
°C
-
°C
17m
Age
02:06:31
LT
01:06
UTC
0 ft

1,000

2,000

3,000

4,000

5,000

SCT 2,500
BKN 2,900
BKN 4,300
MVFR
<?= Yii::t('app', 'Wind direction') ?> <?= Yii::t('app', 'of'); ?>
240°
08:19
Sunrise
87%
Humidity
Wind shear
Closed/Snow
RWY visual range
RWY condition
Vert. visibility
Min. visibility
CAVOK
Trend
Correction
Special report
1008 hPa
QNH
METAR EGPE 310050Z AUTO 24014KT 9999 SCT025/// BKN029/// BKN043/// 08/06 Q1008
Broken clouds
3 kt
3 kt
01:00
VFR
18 kt
02:00
VFR
18 kt
03:00
MVFR
18 kt
04:00
MVFR
18 kt
05:00
MVFR
18 kt
06:00
MVFR
18 kt
07:00
MVFR
18 kt
10 km+
Visibility
2,900 ft
Ceiling
14 kt
Wind
metar-taf.com/EGPE

Metar-Taf.com

Visual decoder

We and third parties follow your internet behavior on our website with cookies. If you continue, we assume you agree with our cookie policy.